sensor_id;sensor_type;location;lat;lon;timestamp;P1;durP1;ratioP1;P2;durP2;ratioP2
8458;SDS011;4266;48.816;9.154;2023-04-03T00:01:21;18.10;;;5.13;;
8458;SDS011;4266;48.816;9.154;2023-04-03T00:03:47;4.80;;;4.30;;
8458;SDS011;4266;48.816;9.154;2023-04-03T00:06:12;5.37;;;4.97;;
8458;SDS011;4266;48.816;9.154;2023-04-03T00:08:38;6.80;;;4.97;;
8458;SDS011;4266;48.816;9.154;2023-04-03T00:11:04;6.50;;;5.47;;
8458;SDS011;4266;48.816;9.154;2023-04-03T00:13:30;5.40;;;4.90;;
8458;SDS011;4266;48.816;9.154;2023-04-03T00:15:56;5.30;;;4.90;;
8458;SDS011;4266;48.816;9.154;2023-04-03T00:18:22;5.73;;;5.00;;
8458;SDS011;4266;48.816;9.154;2023-04-03T00:20:47;5.33;;;4.90;;
8458;SDS011;4266;48.816;9.154;2023-04-03T00:23:13;5.80;;;5.40;;
8458;SDS011;4266;48.816;9.154;2023-04-03T00:25:39;4.70;;;4.40;;
8458;SDS011;4266;48.816;9.154;2023-04-03T00:28:04;5.17;;;4.67;;
8458;SDS011;4266;48.816;9.154;2023-04-03T00:30:30;5.73;;;4.43;;
8458;SDS011;4266;48.816;9.154;2023-04-03T00:32:56;5.33;;;4.83;;
8458;SDS011;4266;48.816;9.154;2023-04-03T00:35:23;5.50;;;4.50;;
8458;SDS011;4266;48.816;9.154;2023-04-03T00:37:50;5.50;;;5.10;;
8458;SDS011;4266;48.816;9.154;2023-04-03T00:40:15;5.17;;;4.67;;
8458;SDS011;4266;48.816;9.154;2023-04-03T00:42:41;6.40;;;4.63;;
8458;SDS011;4266;48.816;9.154;2023-04-03T00:45:22;5.73;;;5.33;;
8458;SDS011;4266;48.816;9.154;2023-04-03T00:47:38;5.87;;;5.23;;
8458;SDS011;4266;48.816;9.154;2023-04-03T00:50:03;6.83;;;5.47;;
8458;SDS011;4266;48.816;9.154;2023-04-03T00:52:30;5.30;;;4.90;;
8458;SDS011;4266;48.816;9.154;2023-04-03T00:54:57;5.70;;;5.10;;
8458;SDS011;4266;48.816;9.154;2023-04-03T00:57:21;5.70;;;5.20;;
8458;SDS011;4266;48.816;9.154;2023-04-03T00:59:48;5.07;;;4.67;;
8458;SDS011;4266;48.816;9.154;2023-04-03T01:02:12;4.97;;;4.57;;
8458;SDS011;4266;48.816;9.154;2023-04-03T01:04:41;5.63;;;5.13;;
8458;SDS011;4266;48.816;9.154;2023-04-03T01:07:07;6.83;;;4.80;;
8458;SDS011;4266;48.816;9.154;2023-04-03T01:09:33;5.73;;;5.20;;
8458;SDS011;4266;48.816;9.154;2023-04-03T01:14:36;5.23;;;4.77;;
8458;SDS011;4266;48.816;9.154;2023-04-03T01:17:03;5.70;;;5.20;;
8458;SDS011;4266;48.816;9.154;2023-04-03T01:19:30;6.17;;;5.57;;
8458;SDS011;4266;48.816;9.154;2023-04-03T01:22:02;5.83;;;4.67;;
8458;SDS011;4266;48.816;9.154;2023-04-03T01:24:32;5.50;;;5.00;;
8458;SDS011;4266;48.816;9.154;2023-04-03T01:26:59;5.37;;;5.00;;
8458;SDS011;4266;48.816;9.154;2023-04-03T01:29:24;7.77;;;4.97;;
8458;SDS011;4266;48.816;9.154;2023-04-03T01:31:52;5.40;;;4.90;;
8458;SDS011;4266;48.816;9.154;2023-04-03T01:34:18;5.67;;;5.17;;
8458;SDS011;4266;48.816;9.154;2023-04-03T01:36:44;5.60;;;5.10;;
8458;SDS011;4266;48.816;9.154;2023-04-03T01:39:10;5.43;;;4.93;;
8458;SDS011;4266;48.816;9.154;2023-04-03T01:41:37;5.63;;;5.10;;
8458;SDS011;4266;48.816;9.154;2023-04-03T01:44:03;5.67;;;5.13;;
8458;SDS011;4266;48.816;9.154;2023-04-03T01:46:30;5.80;;;4.63;;
8458;SDS011;4266;48.816;9.154;2023-04-03T01:48:56;5.17;;;4.77;;
8458;SDS011;4266;48.816;9.154;2023-04-03T01:51:21;5.23;;;4.83;;
8458;SDS011;4266;48.816;9.154;2023-04-03T01:53:47;5.27;;;4.93;;
8458;SDS011;4266;48.816;9.154;2023-04-03T01:56:13;5.80;;;5.30;;
8458;SDS011;4266;48.816;9.154;2023-04-03T01:58:39;5.40;;;5.00;;
8458;SDS011;4266;48.816;9.154;2023-04-03T02:01:05;5.83;;;5.33;;
8458;SDS011;4266;48.816;9.154;2023-04-03T02:03:31;5.80;;;5.37;;
8458;SDS011;4266;48.816;9.154;2023-04-03T02:05:56;5.70;;;5.17;;
8458;SDS011;4266;48.816;9.154;2023-04-03T02:08:23;5.53;;;5.03;;
8458;SDS011;4266;48.816;9.154;2023-04-03T02:10:49;5.83;;;5.27;;
8458;SDS011;4266;48.816;9.154;2023-04-03T02:13:14;5.20;;;4.70;;
8458;SDS011;4266;48.816;9.154;2023-04-03T02:15:40;5.40;;;4.90;;
8458;SDS011;4266;48.816;9.154;2023-04-03T02:18:06;5.67;;;5.13;;
8458;SDS011;4266;48.816;9.154;2023-04-03T02:20:31;5.27;;;4.87;;
8458;SDS011;4266;48.816;9.154;2023-04-03T02:22:57;6.93;;;5.33;;
8458;SDS011;4266;48.816;9.154;2023-04-03T02:25:23;5.77;;;5.20;;
8458;SDS011;4266;48.816;9.154;2023-04-03T02:27:48;5.40;;;4.90;;
8458;SDS011;4266;48.816;9.154;2023-04-03T02:30:15;5.60;;;5.10;;
8458;SDS011;4266;48.816;9.154;2023-04-03T02:32:41;6.07;;;5.57;;
8458;SDS011;4266;48.816;9.154;2023-04-03T02:35:06;5.40;;;5.00;;
8458;SDS011;4266;48.816;9.154;2023-04-03T02:37:34;5.63;;;5.13;;
8458;SDS011;4266;48.816;9.154;2023-04-03T02:40:00;6.87;;;5.77;;
8458;SDS011;4266;48.816;9.154;2023-04-03T02:42:26;5.67;;;5.17;;
8458;SDS011;4266;48.816;9.154;2023-04-03T02:44:52;6.70;;;6.10;;
8458;SDS011;4266;48.816;9.154;2023-04-03T02:47:17;5.03;;;4.63;;
8458;SDS011;4266;48.816;9.154;2023-04-03T02:49:43;5.57;;;5.07;;
8458;SDS011;4266;48.816;9.154;2023-04-03T02:52:09;5.87;;;5.37;;
8458;SDS011;4266;48.816;9.154;2023-04-03T02:54:35;5.83;;;5.27;;
8458;SDS011;4266;48.816;9.154;2023-04-03T02:57:01;5.80;;;4.63;;
8458;SDS011;4266;48.816;9.154;2023-04-03T02:59:27;5.00;;;4.60;;
8458;SDS011;4266;48.816;9.154;2023-04-03T03:01:54;5.70;;;5.20;;
8458;SDS011;4266;48.816;9.154;2023-04-03T03:04:20;5.13;;;4.67;;
8458;SDS011;4266;48.816;9.154;2023-04-03T03:06:46;5.33;;;4.80;;
8458;SDS011;4266;48.816;9.154;2023-04-03T03:09:12;5.33;;;4.83;;
8458;SDS011;4266;48.816;9.154;2023-04-03T03:11:39;5.40;;;4.90;;
8458;SDS011;4266;48.816;9.154;2023-04-03T03:14:04;5.43;;;4.93;;
8458;SDS011;4266;48.816;9.154;2023-04-03T03:16:30;4.90;;;4.50;;
8458;SDS011;4266;48.816;9.154;2023-04-03T03:18:56;4.83;;;4.43;;
8458;SDS011;4266;48.816;9.154;2023-04-03T03:21:21;5.83;;;5.27;;
8458;SDS011;4266;48.816;9.154;2023-04-03T03:23:48;5.47;;;5.00;;
8458;SDS011;4266;48.816;9.154;2023-04-03T03:26:14;5.20;;;4.80;;
8458;SDS011;4266;48.816;9.154;2023-04-03T03:28:40;5.33;;;4.93;;
8458;SDS011;4266;48.816;9.154;2023-04-03T03:31:06;5.17;;;4.70;;
8458;SDS011;4266;48.816;9.154;2023-04-03T03:33:33;5.43;;;5.03;;
8458;SDS011;4266;48.816;9.154;2023-04-03T03:35:59;5.67;;;5.20;;
8458;SDS011;4266;48.816;9.154;2023-04-03T03:38:25;6.73;;;4.53;;
8458;SDS011;4266;48.816;9.154;2023-04-03T03:40:51;6.30;;;4.97;;
8458;SDS011;4266;48.816;9.154;2023-04-03T03:43:17;5.83;;;5.33;;
8458;SDS011;4266;48.816;9.154;2023-04-03T03:45:43;4.87;;;4.37;;
8458;SDS011;4266;48.816;9.154;2023-04-03T03:48:08;5.40;;;4.87;;
8458;SDS011;4266;48.816;9.154;2023-04-03T03:50:34;6.37;;;5.07;;
8458;SDS011;4266;48.816;9.154;2023-04-03T03:53:00;5.00;;;4.60;;
8458;SDS011;4266;48.816;9.154;2023-04-03T03:55:26;5.17;;;4.67;;
8458;SDS011;4266;48.816;9.154;2023-04-03T03:57:52;5.13;;;4.73;;
8458;SDS011;4266;48.816;9.154;2023-04-03T04:00:17;5.37;;;4.83;;
8458;SDS011;4266;48.816;9.154;2023-04-03T04:02:43;5.10;;;4.70;;
8458;SDS011;4266;48.816;9.154;2023-04-03T04:05:09;8.20;;;4.73;;
8458;SDS011;4266;48.816;9.154;2023-04-03T04:07:35;5.37;;;4.63;;
8458;SDS011;4266;48.816;9.154;2023-04-03T04:10:01;5.27;;;4.87;;
8458;SDS011;4266;48.816;9.154;2023-04-03T04:12:26;5.37;;;4.97;;
8458;SDS011;4266;48.816;9.154;2023-04-03T04:14:54;7.77;;;4.90;;
8458;SDS011;4266;48.816;9.154;2023-04-03T04:17:19;5.30;;;4.90;;
8458;SDS011;4266;48.816;9.154;2023-04-03T04:19:45;7.17;;;4.90;;
8458;SDS011;4266;48.816;9.154;2023-04-03T04:22:11;5.73;;;5.23;;
8458;SDS011;4266;48.816;9.154;2023-04-03T04:24:37;5.40;;;4.90;;
8458;SDS011;4266;48.816;9.154;2023-04-03T04:27:03;5.67;;;5.27;;
8458;SDS011;4266;48.816;9.154;2023-04-03T04:29:29;5.53;;;5.03;;
8458;SDS011;4266;48.816;9.154;2023-04-03T04:31:54;5.30;;;4.80;;
8458;SDS011;4266;48.816;9.154;2023-04-03T04:34:20;7.60;;;5.73;;
8458;SDS011;4266;48.816;9.154;2023-04-03T04:36:47;5.37;;;4.87;;
8458;SDS011;4266;48.816;9.154;2023-04-03T04:39:14;5.57;;;5.17;;
8458;SDS011;4266;48.816;9.154;2023-04-03T04:41:40;6.53;;;5.17;;
8458;SDS011;4266;48.816;9.154;2023-04-03T04:44:06;4.70;;;4.37;;
8458;SDS011;4266;48.816;9.154;2023-04-03T04:46:32;4.80;;;4.40;;
8458;SDS011;4266;48.816;9.154;2023-04-03T04:48:58;5.83;;;5.33;;
8458;SDS011;4266;48.816;9.154;2023-04-03T04:51:24;4.90;;;4.47;;
8458;SDS011;4266;48.816;9.154;2023-04-03T04:53:49;4.80;;;4.40;;
8458;SDS011;4266;48.816;9.154;2023-04-03T04:56:16;5.03;;;4.60;;
8458;SDS011;4266;48.816;9.154;2023-04-03T04:58:41;5.23;;;4.73;;
8458;SDS011;4266;48.816;9.154;2023-04-03T05:01:08;4.07;;;3.87;;
8458;SDS011;4266;48.816;9.154;2023-04-03T05:03:33;5.50;;;5.00;;
8458;SDS011;4266;48.816;9.154;2023-04-03T05:05:59;5.10;;;4.80;;
8458;SDS011;4266;48.816;9.154;2023-04-03T05:08:25;5.20;;;4.70;;
8458;SDS011;4266;48.816;9.154;2023-04-03T05:10:51;4.80;;;4.47;;
8458;SDS011;4266;48.816;9.154;2023-04-03T05:13:17;5.20;;;4.80;;
8458;SDS011;4266;48.816;9.154;2023-04-03T05:15:43;5.47;;;4.97;;
8458;SDS011;4266;48.816;9.154;2023-04-03T05:18:08;6.13;;;4.80;;
8458;SDS011;4266;48.816;9.154;2023-04-03T05:20:35;4.73;;;4.33;;
8458;SDS011;4266;48.816;9.154;2023-04-03T05:23:01;4.90;;;4.50;;
8458;SDS011;4266;48.816;9.154;2023-04-03T05:25:26;6.13;;;4.97;;
8458;SDS011;4266;48.816;9.154;2023-04-03T05:27:52;4.30;;;3.90;;
8458;SDS011;4266;48.816;9.154;2023-04-03T05:30:18;5.30;;;4.97;;
8458;SDS011;4266;48.816;9.154;2023-04-03T05:32:44;4.97;;;4.67;;
8458;SDS011;4266;48.816;9.154;2023-04-03T05:35:09;5.20;;;4.60;;
8458;SDS011;4266;48.816;9.154;2023-04-03T05:37:35;6.83;;;4.33;;
8458;SDS011;4266;48.816;9.154;2023-04-03T05:40:01;5.33;;;4.80;;
8458;SDS011;4266;48.816;9.154;2023-04-03T05:42:26;4.70;;;4.40;;
8458;SDS011;4266;48.816;9.154;2023-04-03T05:44:52;5.57;;;5.17;;
8458;SDS011;4266;48.816;9.154;2023-04-03T05:47:18;5.40;;;4.90;;
8458;SDS011;4266;48.816;9.154;2023-04-03T05:49:44;4.70;;;4.40;;
8458;SDS011;4266;48.816;9.154;2023-04-03T05:52:18;6.97;;;5.40;;
8458;SDS011;4266;48.816;9.154;2023-04-03T05:54:50;4.77;;;4.47;;
8458;SDS011;4266;48.816;9.154;2023-04-03T05:57:16;5.10;;;4.80;;
8458;SDS011;4266;48.816;9.154;2023-04-03T05:59:42;5.10;;;4.70;;
8458;SDS011;4266;48.816;9.154;2023-04-03T06:02:10;4.47;;;4.17;;
8458;SDS011;4266;48.816;9.154;2023-04-03T06:04:34;4.70;;;4.40;;
8458;SDS011;4266;48.816;9.154;2023-04-03T06:07:00;4.47;;;4.07;;
8458;SDS011;4266;48.816;9.154;2023-04-03T06:09:26;4.83;;;4.50;;
8458;SDS011;4266;48.816;9.154;2023-04-03T06:11:52;5.27;;;4.37;;
8458;SDS011;4266;48.816;9.154;2023-04-03T06:14:18;6.13;;;5.53;;
8458;SDS011;4266;48.816;9.154;2023-04-03T06:16:44;4.37;;;4.07;;
8458;SDS011;4266;48.816;9.154;2023-04-03T06:19:10;5.27;;;4.30;;
8458;SDS011;4266;48.816;9.154;2023-04-03T06:21:36;6.97;;;4.53;;
8458;SDS011;4266;48.816;9.154;2023-04-03T06:24:03;4.13;;;3.90;;
8458;SDS011;4266;48.816;9.154;2023-04-03T06:26:28;5.50;;;5.00;;
8458;SDS011;4266;48.816;9.154;2023-04-03T06:28:54;4.60;;;4.30;;
8458;SDS011;4266;48.816;9.154;2023-04-03T06:31:20;5.57;;;4.30;;
8458;SDS011;4266;48.816;9.154;2023-04-03T06:33:45;6.37;;;4.40;;
8458;SDS011;4266;48.816;9.154;2023-04-03T06:36:11;5.70;;;4.73;;
8458;SDS011;4266;48.816;9.154;2023-04-03T06:38:37;4.53;;;4.13;;
8458;SDS011;4266;48.816;9.154;2023-04-03T06:41:02;4.87;;;4.47;;
8458;SDS011;4266;48.816;9.154;2023-04-03T06:43:28;5.37;;;4.90;;
8458;SDS011;4266;48.816;9.154;2023-04-03T06:45:54;5.10;;;4.70;;
8458;SDS011;4266;48.816;9.154;2023-04-03T06:48:20;5.43;;;4.80;;
8458;SDS011;4266;48.816;9.154;2023-04-03T06:50:46;4.87;;;4.53;;
8458;SDS011;4266;48.816;9.154;2023-04-03T06:53:12;5.40;;;5.00;;
8458;SDS011;4266;48.816;9.154;2023-04-03T06:55:38;4.90;;;4.60;;
8458;SDS011;4266;48.816;9.154;2023-04-03T06:58:04;6.13;;;5.03;;
8458;SDS011;4266;48.816;9.154;2023-04-03T07:00:30;5.23;;;4.33;;
8458;SDS011;4266;48.816;9.154;2023-04-03T07:02:55;5.43;;;4.87;;
8458;SDS011;4266;48.816;9.154;2023-04-03T07:05:21;4.63;;;4.23;;
8458;SDS011;4266;48.816;9.154;2023-04-03T07:07:47;5.60;;;5.10;;
8458;SDS011;4266;48.816;9.154;2023-04-03T07:10:13;6.23;;;4.97;;
8458;SDS011;4266;48.816;9.154;2023-04-03T07:12:38;7.13;;;5.07;;
8458;SDS011;4266;48.816;9.154;2023-04-03T07:15:05;5.90;;;4.60;;
8458;SDS011;4266;48.816;9.154;2023-04-03T07:17:32;6.80;;;5.03;;
8458;SDS011;4266;48.816;9.154;2023-04-03T07:19:58;5.30;;;4.60;;
8458;SDS011;4266;48.816;9.154;2023-04-03T07:22:24;5.30;;;4.80;;
8458;SDS011;4266;48.816;9.154;2023-04-03T07:24:50;4.67;;;4.27;;
8458;SDS011;4266;48.816;9.154;2023-04-03T07:27:16;6.70;;;5.03;;
8458;SDS011;4266;48.816;9.154;2023-04-03T07:29:42;4.97;;;4.50;;
8458;SDS011;4266;48.816;9.154;2023-04-03T07:32:08;5.10;;;4.60;;
8458;SDS011;4266;48.816;9.154;2023-04-03T07:34:34;4.93;;;4.47;;
8458;SDS011;4266;48.816;9.154;2023-04-03T07:37:01;5.20;;;4.70;;
8458;SDS011;4266;48.816;9.154;2023-04-03T07:39:27;6.77;;;4.80;;
8458;SDS011;4266;48.816;9.154;2023-04-03T07:41:52;6.30;;;5.07;;
8458;SDS011;4266;48.816;9.154;2023-04-03T07:44:18;5.30;;;4.53;;
8458;SDS011;4266;48.816;9.154;2023-04-03T07:46:44;5.47;;;4.70;;
8458;SDS011;4266;48.816;9.154;2023-04-03T07:49:09;5.17;;;4.67;;
8458;SDS011;4266;48.816;9.154;2023-04-03T07:51:36;5.07;;;4.40;;
8458;SDS011;4266;48.816;9.154;2023-04-03T07:54:01;4.90;;;4.30;;
8458;SDS011;4266;48.816;9.154;2023-04-03T07:56:27;4.10;;;3.80;;
8458;SDS011;4266;48.816;9.154;2023-04-03T07:58:53;6.27;;;4.63;;
8458;SDS011;4266;48.816;9.154;2023-04-03T08:01:19;7.07;;;5.13;;
8458;SDS011;4266;48.816;9.154;2023-04-03T08:03:44;5.53;;;4.20;;
8458;SDS011;4266;48.816;9.154;2023-04-03T08:06:10;4.53;;;4.07;;
8458;SDS011;4266;48.816;9.154;2023-04-03T08:08:36;5.43;;;4.53;;
8458;SDS011;4266;48.816;9.154;2023-04-03T08:11:01;5.00;;;4.50;;
8458;SDS011;4266;48.816;9.154;2023-04-03T08:13:28;5.50;;;5.00;;
8458;SDS011;4266;48.816;9.154;2023-04-03T08:15:54;5.13;;;4.63;;
8458;SDS011;4266;48.816;9.154;2023-04-03T08:18:19;4.73;;;4.40;;
8458;SDS011;4266;48.816;9.154;2023-04-03T08:20:45;7.07;;;4.03;;
8458;SDS011;4266;48.816;9.154;2023-04-03T08:23:11;5.17;;;4.77;;
8458;SDS011;4266;48.816;9.154;2023-04-03T08:25:38;4.70;;;4.30;;
8458;SDS011;4266;48.816;9.154;2023-04-03T08:28:04;5.37;;;4.33;;
8458;SDS011;4266;48.816;9.154;2023-04-03T08:30:30;4.70;;;4.30;;
8458;SDS011;4266;48.816;9.154;2023-04-03T08:32:55;5.70;;;3.87;;
8458;SDS011;4266;48.816;9.154;2023-04-03T08:35:22;5.40;;;4.20;;
8458;SDS011;4266;48.816;9.154;2023-04-03T08:37:47;6.57;;;4.50;;
8458;SDS011;4266;48.816;9.154;2023-04-03T08:40:14;5.57;;;4.27;;
8458;SDS011;4266;48.816;9.154;2023-04-03T08:45:32;6.83;;;4.07;;
8458;SDS011;4266;48.816;9.154;2023-04-03T08:47:55;7.33;;;4.30;;
8458;SDS011;4266;48.816;9.154;2023-04-03T08:50:24;6.37;;;4.37;;
8458;SDS011;4266;48.816;9.154;2023-04-03T08:52:48;7.67;;;3.93;;
8458;SDS011;4266;48.816;9.154;2023-04-03T08:55:20;6.17;;;3.83;;
8458;SDS011;4266;48.816;9.154;2023-04-03T08:57:44;4.23;;;3.93;;
8458;SDS011;4266;48.816;9.154;2023-04-03T09:00:16;4.03;;;3.73;;
8458;SDS011;4266;48.816;9.154;2023-04-03T09:02:45;4.47;;;4.00;;
8458;SDS011;4266;48.816;9.154;2023-04-03T09:05:11;6.27;;;3.90;;
8458;SDS011;4266;48.816;9.154;2023-04-03T09:07:42;4.40;;;4.00;;
8458;SDS011;4266;48.816;9.154;2023-04-03T09:10:05;5.13;;;4.67;;
8458;SDS011;4266;48.816;9.154;2023-04-03T09:12:38;5.87;;;4.00;;
8458;SDS011;4266;48.816;9.154;2023-04-03T09:15:09;4.30;;;4.00;;
8458;SDS011;4266;48.816;9.154;2023-04-03T09:17:36;4.77;;;4.27;;
8458;SDS011;4266;48.816;9.154;2023-04-03T09:20:10;4.27;;;3.87;;
8458;SDS011;4266;48.816;9.154;2023-04-03T09:22:50;4.80;;;3.87;;
8458;SDS011;4266;48.816;9.154;2023-04-03T09:25:17;5.23;;;3.80;;
8458;SDS011;4266;48.816;9.154;2023-04-03T09:27:42;4.40;;;4.00;;
8458;SDS011;4266;48.816;9.154;2023-04-03T09:30:14;4.60;;;4.13;;
8458;SDS011;4266;48.816;9.154;2023-04-03T09:32:40;4.23;;;3.93;;
8458;SDS011;4266;48.816;9.154;2023-04-03T09:35:15;6.07;;;4.17;;
8458;SDS011;4266;48.816;9.154;2023-04-03T09:37:44;7.90;;;4.83;;
8458;SDS011;4266;48.816;9.154;2023-04-03T09:42:46;4.53;;;4.13;;
8458;SDS011;4266;48.816;9.154;2023-04-03T09:45:21;4.70;;;3.83;;
8458;SDS011;4266;48.816;9.154;2023-04-03T09:47:37;4.80;;;4.23;;
8458;SDS011;4266;48.816;9.154;2023-04-03T09:50:18;4.37;;;3.97;;
8458;SDS011;4266;48.816;9.154;2023-04-03T09:52:46;5.47;;;4.20;;
8458;SDS011;4266;48.816;9.154;2023-04-03T09:55:13;4.97;;;4.10;;
8458;SDS011;4266;48.816;9.154;2023-04-03T09:57:39;4.47;;;4.07;;
8458;SDS011;4266;48.816;9.154;2023-04-03T10:00:05;6.23;;;3.93;;
8458;SDS011;4266;48.816;9.154;2023-04-03T10:02:34;3.90;;;3.70;;
8458;SDS011;4266;48.816;9.154;2023-04-03T10:04:59;7.00;;;4.23;;
8458;SDS011;4266;48.816;9.154;2023-04-03T10:07:31;6.40;;;5.13;;
8458;SDS011;4266;48.816;9.154;2023-04-03T10:09:59;7.80;;;3.97;;
8458;SDS011;4266;48.816;9.154;2023-04-03T10:12:24;7.03;;;4.10;;
8458;SDS011;4266;48.816;9.154;2023-04-03T10:14:56;6.50;;;3.77;;
8458;SDS011;4266;48.816;9.154;2023-04-03T10:17:27;8.80;;;4.17;;
8458;SDS011;4266;48.816;9.154;2023-04-03T10:19:55;4.67;;;4.23;;
8458;SDS011;4266;48.816;9.154;2023-04-03T10:25:15;4.43;;;4.03;;
8458;SDS011;4266;48.816;9.154;2023-04-03T10:27:55;5.93;;;3.83;;
8458;SDS011;4266;48.816;9.154;2023-04-03T10:31:33;4.43;;;4.00;;
8458;SDS011;4266;48.816;9.154;2023-04-03T10:34:28;4.07;;;3.77;;
8458;SDS011;4266;48.816;9.154;2023-04-03T10:36:19;5.57;;;3.70;;
8458;SDS011;4266;48.816;9.154;2023-04-03T10:41:39;4.80;;;4.30;;
8458;SDS011;4266;48.816;9.154;2023-04-03T10:44:06;5.77;;;4.10;;
8458;SDS011;4266;48.816;9.154;2023-04-03T10:46:41;5.13;;;4.10;;
8458;SDS011;4266;48.816;9.154;2023-04-03T10:51:59;6.30;;;4.23;;
8458;SDS011;4266;48.816;9.154;2023-04-03T10:54:24;4.90;;;4.50;;
8458;SDS011;4266;48.816;9.154;2023-04-03T10:56:51;5.93;;;4.17;;
8458;SDS011;4266;48.816;9.154;2023-04-03T10:59:24;4.20;;;3.83;;
8458;SDS011;4266;48.816;9.154;2023-04-03T11:01:55;6.00;;;3.53;;
8458;SDS011;4266;48.816;9.154;2023-04-03T11:04:21;3.70;;;3.40;;
8458;SDS011;4266;48.816;9.154;2023-04-03T11:06:49;4.43;;;3.67;;
8458;SDS011;4266;48.816;9.154;2023-04-03T11:09:19;4.13;;;3.57;;
8458;SDS011;4266;48.816;9.154;2023-04-03T11:11:44;4.90;;;4.40;;
8458;SDS011;4266;48.816;9.154;2023-04-03T11:14:13;3.93;;;3.50;;
8458;SDS011;4266;48.816;9.154;2023-04-03T11:16:40;4.07;;;3.67;;
8458;SDS011;4266;48.816;9.154;2023-04-03T11:19:11;3.47;;;3.17;;
8458;SDS011;4266;48.816;9.154;2023-04-03T11:21:50;4.20;;;3.20;;
8458;SDS011;4266;48.816;9.154;2023-04-03T11:24:16;3.87;;;3.07;;
8458;SDS011;4266;48.816;9.154;2023-04-03T11:26:41;4.07;;;3.30;;
8458;SDS011;4266;48.816;9.154;2023-04-03T11:29:08;4.80;;;3.57;;
8458;SDS011;4266;48.816;9.154;2023-04-03T11:34:25;3.90;;;3.60;;
8458;SDS011;4266;48.816;9.154;2023-04-03T11:36:51;3.57;;;3.27;;
8458;SDS011;4266;48.816;9.154;2023-04-03T11:39:22;4.60;;;3.43;;
8458;SDS011;4266;48.816;9.154;2023-04-03T11:41:46;3.40;;;3.17;;
8458;SDS011;4266;48.816;9.154;2023-04-03T11:46:57;4.60;;;3.47;;
8458;SDS011;4266;48.816;9.154;2023-04-03T11:52:00;6.20;;;3.67;;
8458;SDS011;4266;48.816;9.154;2023-04-03T11:57:14;4.33;;;3.60;;
8458;SDS011;4266;48.816;9.154;2023-04-03T11:59:26;3.93;;;3.23;;
8458;SDS011;4266;48.816;9.154;2023-04-03T12:01:53;6.13;;;3.70;;
8458;SDS011;4266;48.816;9.154;2023-04-03T12:04:20;4.33;;;3.47;;
8458;SDS011;4266;48.816;9.154;2023-04-03T12:06:53;4.33;;;3.60;;
8458;SDS011;4266;48.816;9.154;2023-04-03T12:09:26;3.77;;;3.20;;
8458;SDS011;4266;48.816;9.154;2023-04-03T12:11:58;5.40;;;3.47;;
8458;SDS011;4266;48.816;9.154;2023-04-03T12:14:23;3.90;;;3.57;;
8458;SDS011;4266;48.816;9.154;2023-04-03T12:16:49;5.77;;;3.77;;
8458;SDS011;4266;48.816;9.154;2023-04-03T12:19:32;3.63;;;3.33;;
8458;SDS011;4266;48.816;9.154;2023-04-03T12:22:04;4.10;;;3.40;;
8458;SDS011;4266;48.816;9.154;2023-04-03T12:24:31;4.10;;;3.70;;
8458;SDS011;4266;48.816;9.154;2023-04-03T12:29:52;6.00;;;4.17;;
8458;SDS011;4266;48.816;9.154;2023-04-03T12:37:51;3.60;;;3.30;;
8458;SDS011;4266;48.816;9.154;2023-04-03T12:40:21;4.63;;;3.27;;
8458;SDS011;4266;48.816;9.154;2023-04-03T12:42:54;3.67;;;3.40;;
8458;SDS011;4266;48.816;9.154;2023-04-03T12:45:27;4.03;;;3.13;;
8458;SDS011;4266;48.816;9.154;2023-04-03T12:47:54;5.67;;;3.40;;
8458;SDS011;4266;48.816;9.154;2023-04-03T12:50:23;5.23;;;3.47;;
8458;SDS011;4266;48.816;9.154;2023-04-03T12:52:53;4.37;;;3.57;;
8458;SDS011;4266;48.816;9.154;2023-04-03T12:55:18;3.60;;;3.30;;
8458;SDS011;4266;48.816;9.154;2023-04-03T12:57:43;6.20;;;3.90;;
8458;SDS011;4266;48.816;9.154;2023-04-03T13:02:44;4.33;;;3.47;;
8458;SDS011;4266;48.816;9.154;2023-04-03T13:05:13;4.47;;;3.63;;
8458;SDS011;4266;48.816;9.154;2023-04-03T13:07:37;4.03;;;3.43;;
8458;SDS011;4266;48.816;9.154;2023-04-03T13:10:13;4.33;;;3.93;;
8458;SDS011;4266;48.816;9.154;2023-04-03T13:12:46;4.53;;;3.73;;
8458;SDS011;4266;48.816;9.154;2023-04-03T13:15:12;3.63;;;3.33;;
8458;SDS011;4266;48.816;9.154;2023-04-03T13:17:38;4.53;;;4.07;;
8458;SDS011;4266;48.816;9.154;2023-04-03T13:20:09;4.33;;;3.93;;
8458;SDS011;4266;48.816;9.154;2023-04-03T13:22:36;5.00;;;3.30;;
8458;SDS011;4266;48.816;9.154;2023-04-03T13:25:03;4.13;;;3.50;;
8458;SDS011;4266;48.816;9.154;2023-04-03T13:27:28;3.67;;;3.37;;
8458;SDS011;4266;48.816;9.154;2023-04-03T13:29:54;4.70;;;4.03;;
8458;SDS011;4266;48.816;9.154;2023-04-03T13:32:21;4.27;;;3.83;;
8458;SDS011;4266;48.816;9.154;2023-04-03T13:34:45;4.97;;;3.80;;
8458;SDS011;4266;48.816;9.154;2023-04-03T13:39:45;4.70;;;3.83;;
8458;SDS011;4266;48.816;9.154;2023-04-03T13:42:16;3.47;;;3.27;;
8458;SDS011;4266;48.816;9.154;2023-04-03T13:44:40;3.70;;;3.20;;
8458;SDS011;4266;48.816;9.154;2023-04-03T13:47:18;5.17;;;3.53;;
8458;SDS011;4266;48.816;9.154;2023-04-03T13:49:46;4.37;;;3.93;;
8458;SDS011;4266;48.816;9.154;2023-04-03T13:54:45;3.60;;;3.30;;
8458;SDS011;4266;48.816;9.154;2023-04-03T13:57:14;4.83;;;3.43;;
8458;SDS011;4266;48.816;9.154;2023-04-03T13:59:38;3.60;;;3.30;;
8458;SDS011;4266;48.816;9.154;2023-04-03T14:04:47;5.33;;;3.50;;
8458;SDS011;4266;48.816;9.154;2023-04-03T14:07:12;4.03;;;3.37;;
8458;SDS011;4266;48.816;9.154;2023-04-03T14:09:38;3.77;;;3.47;;
8458;SDS011;4266;48.816;9.154;2023-04-03T14:12:05;4.37;;;3.40;;
8458;SDS011;4266;48.816;9.154;2023-04-03T14:14:31;5.07;;;3.73;;
8458;SDS011;4266;48.816;9.154;2023-04-03T14:16:57;3.73;;;3.43;;
8458;SDS011;4266;48.816;9.154;2023-04-03T14:19:24;3.97;;;3.53;;
8458;SDS011;4266;48.816;9.154;2023-04-03T14:21:49;3.60;;;3.30;;
8458;SDS011;4266;48.816;9.154;2023-04-03T14:24:14;4.53;;;3.37;;
8458;SDS011;4266;48.816;9.154;2023-04-03T14:26:40;4.00;;;3.70;;
8458;SDS011;4266;48.816;9.154;2023-04-03T14:29:06;6.63;;;3.57;;
8458;SDS011;4266;48.816;9.154;2023-04-03T14:31:32;5.57;;;3.47;;
8458;SDS011;4266;48.816;9.154;2023-04-03T14:33:58;10.17;;;3.80;;
8458;SDS011;4266;48.816;9.154;2023-04-03T14:36:24;4.00;;;3.60;;
8458;SDS011;4266;48.816;9.154;2023-04-03T14:38:49;3.90;;;3.60;;
8458;SDS011;4266;48.816;9.154;2023-04-03T14:41:16;3.87;;;3.57;;
8458;SDS011;4266;48.816;9.154;2023-04-03T14:43:41;5.10;;;3.60;;
8458;SDS011;4266;48.816;9.154;2023-04-03T14:46:11;4.40;;;3.40;;
8458;SDS011;4266;48.816;9.154;2023-04-03T14:48:36;3.57;;;3.27;;
8458;SDS011;4266;48.816;9.154;2023-04-03T14:51:01;4.87;;;3.30;;
8458;SDS011;4266;48.816;9.154;2023-04-03T14:53:28;4.20;;;3.90;;
8458;SDS011;4266;48.816;9.154;2023-04-03T14:55:54;3.80;;;3.53;;
8458;SDS011;4266;48.816;9.154;2023-04-03T14:58:20;4.30;;;4.00;;
8458;SDS011;4266;48.816;9.154;2023-04-03T15:00:46;4.80;;;3.70;;
8458;SDS011;4266;48.816;9.154;2023-04-03T15:03:15;4.73;;;3.63;;
8458;SDS011;4266;48.816;9.154;2023-04-03T15:05:41;3.83;;;3.53;;
8458;SDS011;4266;48.816;9.154;2023-04-03T15:08:10;4.50;;;3.20;;
8458;SDS011;4266;48.816;9.154;2023-04-03T15:10:33;3.70;;;3.40;;
8458;SDS011;4266;48.816;9.154;2023-04-03T15:12:59;3.80;;;3.50;;
8458;SDS011;4266;48.816;9.154;2023-04-03T15:15:27;3.60;;;3.30;;
8458;SDS011;4266;48.816;9.154;2023-04-03T15:17:51;3.70;;;3.50;;
8458;SDS011;4266;48.816;9.154;2023-04-03T15:20:17;3.73;;;3.47;;
8458;SDS011;4266;48.816;9.154;2023-04-03T15:22:42;4.37;;;3.57;;
8458;SDS011;4266;48.816;9.154;2023-04-03T15:25:08;3.47;;;3.27;;
8458;SDS011;4266;48.816;9.154;2023-04-03T15:27:35;3.60;;;3.30;;
8458;SDS011;4266;48.816;9.154;2023-04-03T15:30:01;3.57;;;3.27;;
8458;SDS011;4266;48.816;9.154;2023-04-03T15:32:27;3.90;;;3.60;;
8458;SDS011;4266;48.816;9.154;2023-04-03T15:34:54;3.67;;;3.37;;
8458;SDS011;4266;48.816;9.154;2023-04-03T15:37:19;5.23;;;3.70;;
8458;SDS011;4266;48.816;9.154;2023-04-03T15:39:45;4.00;;;3.70;;
8458;SDS011;4266;48.816;9.154;2023-04-03T15:42:11;4.63;;;3.73;;
8458;SDS011;4266;48.816;9.154;2023-04-03T15:44:36;3.60;;;3.30;;
8458;SDS011;4266;48.816;9.154;2023-04-03T15:47:02;3.70;;;3.43;;
8458;SDS011;4266;48.816;9.154;2023-04-03T15:49:29;3.83;;;3.53;;
8458;SDS011;4266;48.816;9.154;2023-04-03T15:51:54;3.77;;;3.57;;
8458;SDS011;4266;48.816;9.154;2023-04-03T15:54:20;3.40;;;3.13;;
8458;SDS011;4266;48.816;9.154;2023-04-03T15:56:46;3.90;;;3.60;;
8458;SDS011;4266;48.816;9.154;2023-04-03T15:59:12;4.50;;;3.77;;